VCTRY47 KNTU-KNTU
Flight info
| Callsign | VCTRY47 |
|---|---|
| Flight time | 2h 13m |
| Altitude | 17000 |
| Route | CANOB KW36A HOBOH ZIBUT KW45A IMELL KW36A ZINEP ROWZO HUGEE HENIP WENID |
| Aircraft | F18/H-A/C |
Departure
| Time | 2026-04-28 13:30 |
|---|---|
| Airport | Oceana Naval Air Station (KNTU) |
Arrival
| Time | 2026-04-28 15:43 |
|---|---|
| Airport | Oceana Naval Air Station (KNTU) |
| Time | Latitude | Longitude | Altitude | Speed | Heading |
|---|---|---|---|---|---|
| 2026-04-28 13:19 | 36.81533 | -76.03362 | 30 ft | 0 kts | 45° |
| 2026-04-28 13:22 | 36.81537 | -76.03352 | 30 ft | 0 kts | 72° |
| 2026-04-28 13:23 | 36.81538 | -76.03352 | 30 ft | 0 kts | 72° |
| 2026-04-28 13:25 | 36.81575 | -76.03355 | 30 ft | 16 kts | 313° |
| 2026-04-28 13:25 | 36.81585 | -76.03368 | 30 ft | 0 kts | 314° |
| 2026-04-28 13:26 | 36.81589 | -76.03373 | 30 ft | 3 kts | 312° |
| 2026-04-28 13:26 | 36.81604 | -76.03388 | 30 ft | 0 kts | 337° |
| 2026-04-28 13:26 | 36.81614 | -76.03396 | 30 ft | 8 kts | 321° |
| 2026-04-28 13:27 | 36.81618 | -76.03401 | 30 ft | 0 kts | 317° |
| 2026-04-28 13:27 | 36.81624 | -76.03410 | 30 ft | 6 kts | 308° |
| 2026-04-28 13:28 | 36.81648 | -76.03444 | 30 ft | 0 kts | 320° |
| 2026-04-28 13:28 | 36.81656 | -76.03449 | 30 ft | 2 kts | 343° |
| 2026-04-28 13:28 | 36.81657 | -76.03449 | 30 ft | 0 kts | 345° |
| 2026-04-28 13:29 | 36.81668 | -76.03472 | 30 ft | 8 kts | 292° |
| 2026-04-28 13:29 | 36.81706 | -76.03536 | 30 ft | 10 kts | 311° |
| 2026-04-28 13:29 | 36.81721 | -76.03558 | 30 ft | 0 kts | 311° |
| 2026-04-28 13:29 | 36.81725 | -76.03563 | 30 ft | 3 kts | 312° |
| 2026-04-28 13:30 | 36.81740 | -76.03644 | 30 ft | 15 kts | 239° |
| 2026-04-28 13:30 | 36.81391 | -76.04036 | 30 ft | 141 kts | 222° |
| 2026-04-28 13:30 | 36.80479 | -76.05010 | 838 ft | 179 kts | 219° |
| 2026-04-28 13:30 | 36.79434 | -76.05877 | 1500 ft | 182 kts | 205° |
| 2026-04-28 13:31 | 36.76935 | -76.08284 | 3038 ft | 316 kts | 219° |
| 2026-04-28 13:31 | 36.74973 | -76.10256 | 4241 ft | 405 kts | 219° |
| 2026-04-28 13:31 | 36.72690 | -76.12549 | 5633 ft | 420 kts | 219° |
| 2026-04-28 13:32 | 36.70517 | -76.14731 | 6963 ft | 380 kts | 219° |
| 2026-04-28 13:32 | 36.68561 | -76.16694 | 8165 ft | 344 kts | 219° |
| 2026-04-28 13:32 | 36.66786 | -76.18474 | 9256 ft | 311 kts | 219° |
| 2026-04-28 13:32 | 36.65185 | -76.20081 | 10241 ft | 280 kts | 219° |
| 2026-04-28 13:33 | 36.63749 | -76.21521 | 11121 ft | 250 kts | 219° |
| 2026-04-28 13:33 | 36.62504 | -76.22769 | 11869 ft | 213 kts | 219° |
| 2026-04-28 13:33 | 36.61338 | -76.23483 | 11998 ft | 186 kts | 179° |
| 2026-04-28 13:33 | 36.59824 | -76.23257 | 11481 ft | 273 kts | 175° |
| 2026-04-28 13:34 | 36.57372 | -76.23164 | 10711 ft | 420 kts | 179° |
| 2026-04-28 13:34 | 36.54402 | -76.23093 | 11718 ft | 425 kts | 179° |
| 2026-04-28 13:34 | 36.51432 | -76.23028 | 12552 ft | 436 kts | 179° |
| 2026-04-28 13:34 | 36.48387 | -76.22962 | 12321 ft | 436 kts | 179° |
| 2026-04-28 13:35 | 36.45339 | -76.22894 | 12423 ft | 439 kts | 179° |
| 2026-04-28 13:35 | 36.42286 | -76.22828 | 12405 ft | 437 kts | 179° |
| 2026-04-28 13:35 | 36.39251 | -76.22762 | 12391 ft | 438 kts | 179° |
| 2026-04-28 13:35 | 36.36228 | -76.22341 | 12399 ft | 439 kts | 163° |
| 2026-04-28 13:36 | 36.33504 | -76.20682 | 12412 ft | 439 kts | 142° |
| 2026-04-28 13:36 | 36.32035 | -76.18966 | 12401 ft | 439 kts | 129° |
| 2026-04-28 13:36 | 36.30530 | -76.15686 | 12406 ft | 439 kts | 111° |
| 2026-04-28 13:36 | 36.29600 | -76.12082 | 12379 ft | 439 kts | 99° |
| 2026-04-28 13:37 | 36.29600 | -76.08325 | 12408 ft | 439 kts | 78° |
| 2026-04-28 13:37 | 36.30672 | -76.04800 | 12404 ft | 439 kts | 58° |
| 2026-04-28 13:37 | 36.32676 | -76.01979 | 12397 ft | 439 kts | 37° |
| 2026-04-28 13:37 | 36.35278 | -75.99985 | 12404 ft | 439 kts | 28° |
| 2026-04-28 13:38 | 36.38114 | -75.98623 | 12400 ft | 439 kts | 15° |
| 2026-04-28 13:38 | 36.41070 | -75.97695 | 12400 ft | 432 kts | 14° |
| 2026-04-28 13:38 | 36.43819 | -75.96848 | 12395 ft | 382 kts | 14° |
| 2026-04-28 13:38 | 36.46252 | -75.96099 | 12403 ft | 338 kts | 14° |
| 2026-04-28 13:39 | 36.48400 | -75.95438 | 12400 ft | 299 kts | 14° |
| 2026-04-28 13:39 | 36.50316 | -75.94848 | 12406 ft | 286 kts | 14° |
| 2026-04-28 13:39 | 36.52358 | -75.94218 | 12392 ft | 301 kts | 14° |
| 2026-04-28 13:39 | 36.54384 | -75.93595 | 12518 ft | 303 kts | 14° |
| 2026-04-28 13:40 | 36.56421 | -75.92966 | 12683 ft | 301 kts | 14° |
| 2026-04-28 13:40 | 36.58464 | -75.92336 | 12870 ft | 304 kts | 14° |
| 2026-04-28 13:40 | 36.60518 | -75.91702 | 12922 ft | 304 kts | 14° |
| 2026-04-28 13:40 | 36.62572 | -75.91068 | 12920 ft | 304 kts | 14° |
| 2026-04-28 13:41 | 36.64622 | -75.90435 | 12936 ft | 304 kts | 14° |
| 2026-04-28 13:41 | 36.66652 | -75.89809 | 12933 ft | 304 kts | 14° |
| 2026-04-28 13:41 | 36.68730 | -75.89167 | 12927 ft | 304 kts | 13° |
| 2026-04-28 13:41 | 36.70813 | -75.88687 | 12930 ft | 304 kts | 6° |
| 2026-04-28 13:42 | 36.72885 | -75.89011 | 12941 ft | 304 kts | 335° |
| 2026-04-28 13:42 | 36.74304 | -75.90251 | 12940 ft | 304 kts | 310° |
| 2026-04-28 13:42 | 36.75158 | -75.92103 | 12928 ft | 304 kts | 285° |
| 2026-04-28 13:42 | 36.75226 | -75.94732 | 12927 ft | 304 kts | 254° |
| 2026-04-28 13:43 | 36.74228 | -75.96991 | 12932 ft | 304 kts | 224° |
| 2026-04-28 13:43 | 36.72411 | -75.98357 | 12939 ft | 305 kts | 199° |
| 2026-04-28 13:43 | 36.70411 | -75.99214 | 12915 ft | 303 kts | 199° |
| 2026-04-28 13:43 | 36.68415 | -76.00060 | 12926 ft | 304 kts | 199° |
| 2026-04-28 13:44 | 36.66407 | -76.00911 | 12936 ft | 304 kts | 199° |
| 2026-04-28 13:44 | 36.64432 | -76.01748 | 12930 ft | 304 kts | 199° |
| 2026-04-28 13:44 | 36.62426 | -76.02598 | 12928 ft | 304 kts | 199° |
| 2026-04-28 13:44 | 36.60426 | -76.03445 | 12931 ft | 304 kts | 199° |
| 2026-04-28 13:45 | 36.58425 | -76.04293 | 12931 ft | 304 kts | 199° |
| 2026-04-28 13:45 | 36.56420 | -76.05141 | 12930 ft | 304 kts | 199° |
| 2026-04-28 13:45 | 36.54415 | -76.05990 | 12930 ft | 304 kts | 199° |
| 2026-04-28 13:45 | 36.52414 | -76.06837 | 12930 ft | 304 kts | 199° |
| 2026-04-28 13:46 | 36.50385 | -76.07696 | 12930 ft | 304 kts | 199° |
| 2026-04-28 13:46 | 36.48404 | -76.08533 | 12930 ft | 304 kts | 199° |
| 2026-04-28 13:46 | 36.46402 | -76.09380 | 12930 ft | 304 kts | 199° |
| 2026-04-28 13:46 | 36.44399 | -76.10226 | 12930 ft | 304 kts | 199° |
| 2026-04-28 13:47 | 36.42396 | -76.11073 | 12930 ft | 304 kts | 199° |
| 2026-04-28 13:47 | 36.40391 | -76.11920 | 12930 ft | 304 kts | 199° |
| 2026-04-28 13:47 | 36.38387 | -76.12766 | 12930 ft | 304 kts | 199° |
| 2026-04-28 13:47 | 36.36383 | -76.13613 | 12930 ft | 304 kts | 199° |
| 2026-04-28 13:48 | 36.34383 | -76.14457 | 12930 ft | 304 kts | 199° |
| 2026-04-28 13:48 | 36.32378 | -76.15304 | 12930 ft | 304 kts | 199° |
| 2026-04-28 13:48 | 36.30378 | -76.16147 | 12930 ft | 304 kts | 199° |
| 2026-04-28 13:48 | 36.28372 | -76.16994 | 12930 ft | 304 kts | 199° |
| 2026-04-28 13:49 | 36.26370 | -76.17838 | 12930 ft | 304 kts | 199° |
| 2026-04-28 13:49 | 36.24365 | -76.18683 | 12930 ft | 304 kts | 199° |
| 2026-04-28 13:49 | 36.22362 | -76.19528 | 12930 ft | 304 kts | 199° |
| 2026-04-28 13:49 | 36.20363 | -76.20365 | 12929 ft | 304 kts | 195° |
| 2026-04-28 13:50 | 36.18272 | -76.20449 | 12940 ft | 304 kts | 165° |
| 2026-04-28 13:50 | 36.16390 | -76.19287 | 12942 ft | 305 kts | 146° |
| 2026-04-28 13:50 | 36.14633 | -76.17835 | 12911 ft | 303 kts | 146° |
| 2026-04-28 13:50 | 36.12876 | -76.16383 | 12928 ft | 304 kts | 146° |
| 2026-04-28 13:51 | 36.11117 | -76.14931 | 12937 ft | 304 kts | 146° |
| 2026-04-28 13:51 | 36.09354 | -76.13476 | 12929 ft | 304 kts | 146° |
| 2026-04-28 13:51 | 36.07596 | -76.12027 | 12928 ft | 304 kts | 146° |
| 2026-04-28 13:51 | 36.05832 | -76.10575 | 12931 ft | 304 kts | 146° |
| 2026-04-28 13:52 | 36.04075 | -76.09130 | 12930 ft | 304 kts | 146° |
| 2026-04-28 13:52 | 36.02310 | -76.07679 | 12929 ft | 304 kts | 146° |
| 2026-04-28 13:52 | 36.00549 | -76.06234 | 12930 ft | 304 kts | 146° |
| 2026-04-28 13:52 | 35.98786 | -76.04787 | 12930 ft | 304 kts | 146° |
| 2026-04-28 13:53 | 35.97024 | -76.03344 | 12930 ft | 304 kts | 146° |
| 2026-04-28 13:53 | 35.95260 | -76.01901 | 12930 ft | 304 kts | 146° |
| 2026-04-28 13:53 | 35.93497 | -76.00460 | 12930 ft | 304 kts | 146° |
| 2026-04-28 13:53 | 35.91732 | -75.99019 | 12930 ft | 304 kts | 146° |
| 2026-04-28 13:54 | 35.89966 | -75.97580 | 12930 ft | 304 kts | 146° |
| 2026-04-28 13:54 | 35.88200 | -75.96142 | 12930 ft | 304 kts | 146° |
| 2026-04-28 13:54 | 35.86433 | -75.94706 | 12930 ft | 304 kts | 146° |
| 2026-04-28 13:54 | 35.84669 | -75.93274 | 12930 ft | 304 kts | 147° |
| 2026-04-28 13:55 | 35.82897 | -75.91839 | 12930 ft | 304 kts | 147° |
| 2026-04-28 13:55 | 35.82082 | -75.91180 | 12930 ft | 304 kts | 147° |
| 2026-04-28 13:56 | 35.80937 | -75.90255 | 12930 ft | 304 kts | 147° |
| 2026-04-28 13:56 | 35.79168 | -75.88829 | 12930 ft | 304 kts | 147° |
| 2026-04-28 13:56 | 35.77411 | -75.87435 | 12929 ft | 304 kts | 148° |
| 2026-04-28 13:56 | 35.75600 | -75.86030 | 12929 ft | 304 kts | 148° |
| 2026-04-28 13:57 | 35.73806 | -75.84640 | 12931 ft | 304 kts | 148° |
| 2026-04-28 13:57 | 35.72045 | -75.83276 | 12930 ft | 304 kts | 148° |
| 2026-04-28 13:57 | 35.70251 | -75.81886 | 12930 ft | 304 kts | 148° |
| 2026-04-28 13:57 | 35.68461 | -75.80500 | 12930 ft | 304 kts | 148° |
| 2026-04-28 13:58 | 35.66672 | -75.79114 | 12930 ft | 304 kts | 148° |
| 2026-04-28 13:58 | 35.64879 | -75.77727 | 12930 ft | 304 kts | 148° |
| 2026-04-28 13:58 | 35.63090 | -75.76342 | 12930 ft | 304 kts | 148° |
| 2026-04-28 13:58 | 35.61299 | -75.74956 | 12930 ft | 304 kts | 148° |
| 2026-04-28 13:59 | 35.59369 | -75.73975 | 12938 ft | 303 kts | 176° |
| 2026-04-28 13:59 | 35.57325 | -75.74476 | 12945 ft | 304 kts | 211° |
| 2026-04-28 13:59 | 35.55879 | -75.76321 | 12927 ft | 304 kts | 246° |
| 2026-04-28 13:59 | 35.55562 | -75.78847 | 12926 ft | 304 kts | 281° |
| 2026-04-28 14:00 | 35.56484 | -75.81138 | 12932 ft | 304 kts | 316° |
| 2026-04-28 14:00 | 35.58229 | -75.82597 | 12926 ft | 304 kts | 330° |
| 2026-04-28 14:00 | 35.60036 | -75.83873 | 12912 ft | 304 kts | 330° |
| 2026-04-28 14:00 | 35.61922 | -75.85020 | 12927 ft | 303 kts | 348° |
| 2026-04-28 14:01 | 35.64030 | -75.85179 | 12946 ft | 304 kts | 360° |
| 2026-04-28 14:01 | 35.66141 | -75.85190 | 12913 ft | 304 kts | 360° |
| 2026-04-28 14:01 | 35.68256 | -75.85211 | 12926 ft | 304 kts | 359° |
| 2026-04-28 14:01 | 35.70371 | -75.85246 | 12936 ft | 305 kts | 359° |
| 2026-04-28 14:02 | 35.72494 | -75.85269 | 12929 ft | 305 kts | 359° |
| 2026-04-28 14:02 | 35.74611 | -75.85308 | 12926 ft | 304 kts | 359° |
| 2026-04-28 14:02 | 35.76724 | -75.85349 | 12932 ft | 304 kts | 359° |
| 2026-04-28 14:02 | 35.78842 | -75.85389 | 12931 ft | 304 kts | 359° |
| 2026-04-28 14:03 | 35.80956 | -75.85430 | 12929 ft | 304 kts | 359° |
| 2026-04-28 14:03 | 35.83075 | -75.85471 | 12931 ft | 304 kts | 359° |
| 2026-04-28 14:03 | 35.85184 | -75.85642 | 12940 ft | 304 kts | 351° |
| 2026-04-28 14:03 | 35.85936 | -75.85822 | 12901 ft | 305 kts | 345° |
| 2026-04-28 14:04 | 35.87290 | -75.86441 | 12636 ft | 304 kts | 331° |
| 2026-04-28 14:04 | 35.88887 | -75.88108 | 11391 ft | 307 kts | 305° |
| 2026-04-28 14:04 | 35.89379 | -75.90563 | 11186 ft | 296 kts | 269° |
| 2026-04-28 14:04 | 35.89778 | -75.93033 | 11431 ft | 298 kts | 296° |
| 2026-04-28 14:05 | 35.91066 | -75.95028 | 11468 ft | 319 kts | 323° |
| 2026-04-28 14:05 | 35.93294 | -75.96393 | 11356 ft | 366 kts | 346° |
| 2026-04-28 14:05 | 35.95804 | -75.96778 | 11407 ft | 364 kts | 356° |
| 2026-04-28 14:05 | 35.98312 | -75.96430 | 11403 ft | 365 kts | 18° |
| 2026-04-28 14:06 | 36.00584 | -75.95063 | 11411 ft | 365 kts | 30° |
| 2026-04-28 14:06 | 36.02772 | -75.93468 | 11390 ft | 364 kts | 30° |
| 2026-04-28 14:06 | 36.04949 | -75.91869 | 11398 ft | 364 kts | 31° |
| 2026-04-28 14:06 | 36.07125 | -75.90267 | 11404 ft | 365 kts | 30° |
| 2026-04-28 14:07 | 36.09308 | -75.88668 | 11399 ft | 364 kts | 31° |
| 2026-04-28 14:07 | 36.11467 | -75.87030 | 11399 ft | 364 kts | 31° |
| 2026-04-28 14:07 | 36.13612 | -75.85352 | 11401 ft | 364 kts | 33° |
| 2026-04-28 14:07 | 36.15738 | -75.83648 | 11400 ft | 364 kts | 33° |
| 2026-04-28 14:08 | 36.17840 | -75.81962 | 11400 ft | 364 kts | 33° |
| 2026-04-28 14:08 | 36.19994 | -75.80233 | 11400 ft | 364 kts | 33° |
| 2026-04-28 14:08 | 36.22094 | -75.78551 | 11400 ft | 364 kts | 33° |
| 2026-04-28 14:08 | 36.24221 | -75.76841 | 11400 ft | 364 kts | 33° |
| 2026-04-28 14:09 | 36.26352 | -75.75143 | 11400 ft | 364 kts | 32° |
| 2026-04-28 14:09 | 36.28488 | -75.73445 | 11400 ft | 364 kts | 33° |
| 2026-04-28 14:09 | 36.30610 | -75.71731 | 11400 ft | 364 kts | 33° |
| 2026-04-28 14:09 | 36.32737 | -75.70012 | 11400 ft | 364 kts | 33° |
| 2026-04-28 14:10 | 36.34858 | -75.68295 | 11400 ft | 364 kts | 33° |
| 2026-04-28 14:10 | 36.36984 | -75.66577 | 11400 ft | 364 kts | 33° |
| 2026-04-28 14:10 | 36.39132 | -75.64908 | 11391 ft | 364 kts | 26° |
| 2026-04-28 14:10 | 36.40403 | -75.64286 | 11404 ft | 364 kts | 18° |
| 2026-04-28 14:11 | 36.42001 | -75.63659 | 11412 ft | 365 kts | 17° |
| 2026-04-28 14:11 | 36.44425 | -75.62718 | 11394 ft | 364 kts | 17° |
| 2026-04-28 14:11 | 36.46843 | -75.61776 | 11398 ft | 364 kts | 17° |
| 2026-04-28 14:11 | 36.49262 | -75.60829 | 11403 ft | 365 kts | 17° |
| 2026-04-28 14:12 | 36.51678 | -75.59879 | 11399 ft | 364 kts | 18° |
| 2026-04-28 14:12 | 36.54099 | -75.58924 | 11399 ft | 364 kts | 18° |
| 2026-04-28 14:12 | 36.56541 | -75.57955 | 11401 ft | 364 kts | 18° |
| 2026-04-28 14:12 | 36.58959 | -75.56992 | 11400 ft | 364 kts | 18° |
| 2026-04-28 14:13 | 36.61340 | -75.56039 | 11400 ft | 364 kts | 18° |
| 2026-04-28 14:13 | 36.63754 | -75.55067 | 11400 ft | 364 kts | 18° |
| 2026-04-28 14:13 | 36.66165 | -75.54091 | 11400 ft | 364 kts | 18° |
| 2026-04-28 14:13 | 36.68574 | -75.53111 | 11400 ft | 364 kts | 18° |
| 2026-04-28 14:14 | 36.70984 | -75.52125 | 11400 ft | 364 kts | 18° |
| 2026-04-28 14:14 | 36.73390 | -75.51133 | 11400 ft | 364 kts | 18° |
| 2026-04-28 14:14 | 36.75799 | -75.50134 | 11400 ft | 364 kts | 18° |
| 2026-04-28 14:14 | 36.78201 | -75.49131 | 11400 ft | 364 kts | 18° |
| 2026-04-28 14:15 | 36.80607 | -75.48119 | 11400 ft | 364 kts | 19° |
| 2026-04-28 14:15 | 36.83008 | -75.47100 | 11400 ft | 364 kts | 19° |
| 2026-04-28 14:15 | 36.85405 | -75.46075 | 11400 ft | 364 kts | 19° |
| 2026-04-28 14:15 | 36.87800 | -75.45041 | 11400 ft | 364 kts | 19° |
| 2026-04-28 14:16 | 36.90196 | -75.43997 | 11400 ft | 364 kts | 19° |
| 2026-04-28 14:16 | 36.92588 | -75.42944 | 11400 ft | 364 kts | 19° |
| 2026-04-28 14:16 | 36.94975 | -75.41882 | 11400 ft | 364 kts | 20° |
| 2026-04-28 14:16 | 36.97359 | -75.40808 | 11400 ft | 364 kts | 20° |
| 2026-04-28 14:17 | 36.99745 | -75.39719 | 11400 ft | 364 kts | 20° |
| 2026-04-28 14:17 | 37.02121 | -75.38621 | 11400 ft | 364 kts | 20° |
| 2026-04-28 14:17 | 37.04499 | -75.37504 | 11400 ft | 364 kts | 20° |
| 2026-04-28 14:17 | 37.06864 | -75.36375 | 11400 ft | 364 kts | 21° |
| 2026-04-28 14:18 | 37.09227 | -75.35227 | 11400 ft | 364 kts | 21° |
| 2026-04-28 14:18 | 37.11586 | -75.34058 | 11400 ft | 364 kts | 22° |
| 2026-04-28 14:18 | 37.13938 | -75.32867 | 11400 ft | 364 kts | 22° |
| 2026-04-28 14:18 | 37.16283 | -75.31649 | 11400 ft | 364 kts | 22° |
| 2026-04-28 14:19 | 37.18617 | -75.30404 | 11400 ft | 364 kts | 23° |
| 2026-04-28 14:19 | 37.20935 | -75.29128 | 11400 ft | 364 kts | 24° |
| 2026-04-28 14:19 | 37.23243 | -75.27813 | 11400 ft | 364 kts | 25° |
| 2026-04-28 14:19 | 37.25538 | -75.26451 | 11400 ft | 364 kts | 26° |
| 2026-04-28 14:20 | 37.27810 | -75.25038 | 11400 ft | 364 kts | 27° |
| 2026-04-28 14:20 | 37.30054 | -75.23564 | 11400 ft | 364 kts | 28° |
| 2026-04-28 14:20 | 37.32270 | -75.22008 | 11400 ft | 364 kts | 30° |
| 2026-04-28 14:20 | 37.34439 | -75.20360 | 11400 ft | 364 kts | 32° |
| 2026-04-28 14:21 | 37.36544 | -75.18592 | 11400 ft | 364 kts | 35° |
| 2026-04-28 14:21 | 37.38567 | -75.16664 | 11400 ft | 364 kts | 39° |
| 2026-04-28 14:21 | 37.40451 | -75.14541 | 11400 ft | 364 kts | 45° |
| 2026-04-28 14:21 | 37.42134 | -75.12156 | 11400 ft | 364 kts | 53° |
| 2026-04-28 14:22 | 37.43494 | -75.09474 | 11400 ft | 364 kts | 63° |
| 2026-04-28 14:22 | 37.44400 | -75.06499 | 11401 ft | 364 kts | 76° |
| 2026-04-28 14:22 | 37.44787 | -75.03355 | 11402 ft | 364 kts | 87° |
| 2026-04-28 14:22 | 37.44737 | -75.00171 | 11400 ft | 364 kts | 95° |
| 2026-04-28 14:23 | 37.44401 | -74.97007 | 11399 ft | 364 kts | 100° |
| 2026-04-28 14:23 | 37.44084 | -74.94934 | 11399 ft | 364 kts | 102° |
| 2026-04-28 14:23 | 37.43523 | -74.91825 | 11400 ft | 364 kts | 103° |
| 2026-04-28 14:23 | 37.42906 | -74.88731 | 11400 ft | 364 kts | 104° |
| 2026-04-28 14:24 | 37.42250 | -74.85615 | 11402 ft | 381 kts | 106° |
| 2026-04-28 14:24 | 37.41551 | -74.82385 | 11400 ft | 382 kts | 107° |
| 2026-04-28 14:24 | 37.40848 | -74.79160 | 11400 ft | 382 kts | 107° |
| 2026-04-28 14:24 | 37.40140 | -74.75935 | 11400 ft | 383 kts | 107° |
| 2026-04-28 14:25 | 37.39427 | -74.72701 | 11400 ft | 388 kts | 106° |
| 2026-04-28 14:25 | 37.38704 | -74.69412 | 11400 ft | 390 kts | 105° |
| 2026-04-28 14:25 | 37.37988 | -74.66144 | 11400 ft | 386 kts | 103° |
| 2026-04-28 14:25 | 37.37279 | -74.62914 | 11400 ft | 381 kts | 103° |
| 2026-04-28 14:26 | 37.36571 | -74.59701 | 11400 ft | 381 kts | 103° |
| 2026-04-28 14:26 | 37.35861 | -74.56489 | 11400 ft | 381 kts | 103° |
| 2026-04-28 14:26 | 37.35152 | -74.53283 | 11400 ft | 381 kts | 103° |
| 2026-04-28 14:26 | 37.34443 | -74.50075 | 11400 ft | 381 kts | 103° |
| 2026-04-28 14:27 | 37.33735 | -74.46876 | 11400 ft | 381 kts | 103° |
| 2026-04-28 14:27 | 37.33026 | -74.43672 | 11400 ft | 381 kts | 103° |
| 2026-04-28 14:27 | 37.32315 | -74.40455 | 11400 ft | 381 kts | 103° |
| 2026-04-28 14:27 | 37.31606 | -74.37251 | 11400 ft | 381 kts | 103° |
| 2026-04-28 14:28 | 37.30898 | -74.34052 | 11400 ft | 381 kts | 103° |
| 2026-04-28 14:28 | 37.30188 | -74.30844 | 11400 ft | 381 kts | 103° |
| 2026-04-28 14:28 | 37.29479 | -74.27641 | 11400 ft | 381 kts | 103° |
| 2026-04-28 14:28 | 37.28771 | -74.24442 | 11400 ft | 381 kts | 103° |
| 2026-04-28 14:29 | 37.28062 | -74.21237 | 11400 ft | 381 kts | 103° |
| 2026-04-28 14:29 | 37.27352 | -74.18029 | 11400 ft | 381 kts | 103° |
| 2026-04-28 14:29 | 37.26642 | -74.14824 | 11400 ft | 381 kts | 103° |
| 2026-04-28 14:29 | 37.25934 | -74.11624 | 11400 ft | 381 kts | 103° |
| 2026-04-28 14:30 | 37.25225 | -74.08424 | 11400 ft | 381 kts | 103° |
| 2026-04-28 14:30 | 37.24516 | -74.05221 | 11400 ft | 381 kts | 103° |
| 2026-04-28 14:30 | 37.23807 | -74.02018 | 11400 ft | 381 kts | 102° |
| 2026-04-28 14:30 | 37.23096 | -73.98810 | 11400 ft | 381 kts | 102° |
| 2026-04-28 14:31 | 37.22388 | -73.95607 | 11400 ft | 380 kts | 102° |
| 2026-04-28 14:31 | 37.21680 | -73.92410 | 11399 ft | 380 kts | 102° |
| 2026-04-28 14:31 | 37.20972 | -73.89218 | 11372 ft | 381 kts | 102° |
| 2026-04-28 14:31 | 37.20267 | -73.86034 | 10466 ft | 374 kts | 102° |
| 2026-04-28 14:32 | 37.19578 | -73.82943 | 9589 ft | 362 kts | 102° |
| 2026-04-28 14:32 | 37.18905 | -73.79927 | 8712 ft | 358 kts | 102° |
| 2026-04-28 14:32 | 37.18246 | -73.76968 | 7842 ft | 348 kts | 102° |
| 2026-04-28 14:32 | 37.17599 | -73.74064 | 6986 ft | 345 kts | 102° |
| 2026-04-28 14:33 | 37.16963 | -73.71212 | 6144 ft | 336 kts | 102° |
| 2026-04-28 14:33 | 37.16339 | -73.68396 | 6257 ft | 337 kts | 102° |
| 2026-04-28 14:33 | 37.15710 | -73.65571 | 6219 ft | 337 kts | 102° |
| 2026-04-28 14:33 | 37.15081 | -73.62749 | 6188 ft | 336 kts | 102° |
| 2026-04-28 14:34 | 37.13834 | -73.57149 | 6216 ft | 336 kts | 102° |
| 2026-04-28 14:34 | 37.13205 | -73.54325 | 6206 ft | 336 kts | 102° |
| 2026-04-28 14:34 | 37.12576 | -73.51500 | 6210 ft | 336 kts | 102° |
| 2026-04-28 14:35 | 37.11948 | -73.48679 | 6058 ft | 337 kts | 102° |
| 2026-04-28 14:35 | 37.11326 | -73.45868 | 5541 ft | 333 kts | 102° |
| 2026-04-28 14:35 | 37.10702 | -73.43069 | 5016 ft | 332 kts | 102° |
| 2026-04-28 14:35 | 37.10083 | -73.40302 | 4492 ft | 326 kts | 102° |
| 2026-04-28 14:36 | 37.09497 | -73.37689 | 3994 ft | 298 kts | 102° |
| 2026-04-28 14:36 | 37.08961 | -73.35299 | 3540 ft | 273 kts | 101° |
| 2026-04-28 14:36 | 37.08468 | -73.33098 | 3122 ft | 251 kts | 101° |
| 2026-04-28 14:36 | 37.08020 | -73.31098 | 2995 ft | 234 kts | 101° |
| 2026-04-28 14:37 | 37.07583 | -73.29145 | 3003 ft | 230 kts | 101° |
| 2026-04-28 14:37 | 37.07146 | -73.27197 | 2982 ft | 234 kts | 101° |
| 2026-04-28 14:37 | 37.06630 | -73.25272 | 2976 ft | 235 kts | 108° |
| 2026-04-28 14:37 | 37.05955 | -73.23404 | 2963 ft | 235 kts | 109° |
| 2026-04-28 14:38 | 37.05308 | -73.21526 | 2949 ft | 236 kts | 108° |
| 2026-04-28 14:38 | 37.04704 | -73.19631 | 2937 ft | 234 kts | 106° |
| 2026-04-28 14:38 | 37.04142 | -73.17715 | 2838 ft | 234 kts | 104° |
| 2026-04-28 14:38 | 37.03520 | -73.15837 | 2588 ft | 236 kts | 109° |
| 2026-04-28 14:39 | 37.02835 | -73.13973 | 2321 ft | 233 kts | 111° |
| 2026-04-28 14:39 | 37.02153 | -73.12139 | 2077 ft | 233 kts | 114° |
| 2026-04-28 14:39 | 37.01463 | -73.10313 | 2096 ft | 230 kts | 116° |
| 2026-04-28 14:39 | 37.00745 | -73.08529 | 2090 ft | 235 kts | 117° |
| 2026-04-28 14:40 | 36.99980 | -73.06754 | 2085 ft | 230 kts | 119° |
| 2026-04-28 14:40 | 36.99434 | -73.05562 | 2089 ft | 232 kts | 120° |
| 2026-04-28 14:40 | 36.98936 | -73.03084 | 2176 ft | 245 kts | 62° |
| 2026-04-28 14:40 | 37.00377 | -73.01833 | 2214 ft | 280 kts | 14° |
| 2026-04-28 14:41 | 37.02100 | -73.02342 | 2252 ft | 253 kts | 304° |
| 2026-04-28 14:41 | 37.03027 | -73.04041 | 2140 ft | 216 kts | 310° |
| 2026-04-28 14:41 | 37.03807 | -73.05230 | 2120 ft | 146 kts | 307° |
| 2026-04-28 14:41 | 37.04175 | -73.06346 | 1614 ft | 145 kts | 267° |
| 2026-04-28 14:42 | 37.03764 | -73.07427 | 1268 ft | 142 kts | 218° |
| 2026-04-28 14:42 | 37.02873 | -73.07876 | 923 ft | 140 kts | 180° |
| 2026-04-28 14:42 | 37.02119 | -73.07266 | 614 ft | 141 kts | 102° |
| 2026-04-28 14:42 | 37.01960 | -73.06079 | 406 ft | 136 kts | 103° |
| 2026-04-28 14:43 | 37.01752 | -73.04916 | 204 ft | 135 kts | 103° |
| 2026-04-28 14:43 | 37.01555 | -73.03931 | 73 ft | 37 kts | 103° |
| 2026-04-28 14:43 | 37.01471 | -73.03641 | 73 ft | 35 kts | 112° |
| 2026-04-28 14:43 | 37.01376 | -73.03346 | 73 ft | 35 kts | 209° |
| 2026-04-28 14:44 | 37.01304 | -73.03105 | 73 ft | 24 kts | 283° |
| 2026-04-28 14:44 | 37.01234 | -73.02854 | 73 ft | 36 kts | 47° |
| 2026-04-28 14:44 | 37.01153 | -73.02543 | 73 ft | 39 kts | 106° |
| 2026-04-28 14:44 | 37.01068 | -73.02246 | 73 ft | 73 kts | 105° |
| 2026-04-28 14:45 | 37.00643 | -73.00177 | 997 ft | 289 kts | 102° |
| 2026-04-28 14:45 | 37.01381 | -72.98235 | 2514 ft | 233 kts | 357° |
| 2026-04-28 14:45 | 37.02570 | -72.99228 | 2677 ft | 217 kts | 299° |
| 2026-04-28 14:45 | 37.03203 | -73.00749 | 2469 ft | 170 kts | 294° |
| 2026-04-28 14:46 | 37.03330 | -73.02005 | 2011 ft | 140 kts | 246° |
| 2026-04-28 14:46 | 37.02678 | -73.02909 | 1441 ft | 146 kts | 206° |
| 2026-04-28 14:46 | 37.01733 | -73.03164 | 890 ft | 139 kts | 176° |
| 2026-04-28 14:46 | 37.00892 | -73.02671 | 623 ft | 138 kts | 119° |
| 2026-04-28 14:47 | 37.00626 | -73.01525 | 413 ft | 136 kts | 103° |
| 2026-04-28 14:47 | 37.00399 | -73.00380 | 244 ft | 137 kts | 105° |
| 2026-04-28 14:47 | 37.00169 | -72.99251 | 81 ft | 136 kts | 103° |
| 2026-04-28 14:47 | 37.00047 | -72.98775 | 73 ft | 37 kts | 155° |
| 2026-04-28 14:48 | 36.99953 | -72.98484 | 73 ft | 38 kts | 144° |
| 2026-04-28 14:48 | 36.99882 | -72.98174 | 73 ft | 31 kts | 317° |
| 2026-04-28 14:48 | 36.99808 | -72.97982 | 73 ft | 22 kts | 275° |
| 2026-04-28 14:48 | 36.99738 | -72.97728 | 73 ft | 36 kts | 37° |
| 2026-04-28 14:49 | 36.99655 | -72.97398 | 73 ft | 35 kts | 106° |
| 2026-04-28 14:49 | 36.99499 | -72.96772 | 129 ft | 253 kts | 106° |
| 2026-04-28 14:49 | 36.99238 | -72.94524 | 1288 ft | 282 kts | 74° |
| 2026-04-28 14:49 | 37.00649 | -72.93773 | 2019 ft | 249 kts | 303° |
| 2026-04-28 14:50 | 37.01237 | -72.95682 | 2038 ft | 228 kts | 292° |
| 2026-04-28 14:50 | 37.01798 | -72.97329 | 1765 ft | 175 kts | 283° |
| 2026-04-28 14:50 | 37.01496 | -72.98486 | 1588 ft | 140 kts | 217° |
| 2026-04-28 14:50 | 37.00563 | -72.98792 | 1113 ft | 143 kts | 176° |
| 2026-04-28 14:51 | 36.99681 | -72.98386 | 960 ft | 138 kts | 137° |
| 2026-04-28 14:51 | 36.99309 | -72.97303 | 676 ft | 139 kts | 102° |
| 2026-04-28 14:51 | 36.99230 | -72.96850 | 583 ft | 137 kts | 102° |
| 2026-04-28 14:52 | 36.99190 | -72.96615 | 537 ft | 137 kts | 104° |
| 2026-04-28 14:52 | 36.98954 | -72.95471 | 327 ft | 134 kts | 104° |
| 2026-04-28 14:52 | 36.98722 | -72.94328 | 115 ft | 134 kts | 105° |
| 2026-04-28 14:52 | 36.98590 | -72.93763 | 73 ft | 35 kts | 104° |
| 2026-04-28 14:53 | 36.98501 | -72.93445 | 73 ft | 39 kts | 122° |
| 2026-04-28 14:53 | 36.98407 | -72.93168 | 73 ft | 32 kts | 314° |
| 2026-04-28 14:53 | 36.98344 | -72.92965 | 73 ft | 22 kts | 286° |
| 2026-04-28 14:53 | 36.98276 | -72.92665 | 73 ft | 39 kts | 106° |
| 2026-04-28 14:54 | 36.98186 | -72.92349 | 73 ft | 85 kts | 105° |
| 2026-04-28 14:54 | 36.97879 | -72.90333 | 1087 ft | 259 kts | 79° |
| 2026-04-28 14:54 | 36.99110 | -72.89994 | 1805 ft | 246 kts | 296° |
| 2026-04-28 14:54 | 36.99840 | -72.91884 | 2024 ft | 216 kts | 291° |
| 2026-04-28 14:55 | 36.99931 | -72.93398 | 1676 ft | 157 kts | 237° |
| 2026-04-28 14:55 | 36.99086 | -72.94012 | 935 ft | 137 kts | 182° |
| 2026-04-28 14:55 | 36.98268 | -72.93510 | 615 ft | 138 kts | 120° |
| 2026-04-28 14:55 | 36.97969 | -72.92394 | 440 ft | 134 kts | 104° |
| 2026-04-28 14:56 | 36.97723 | -72.91268 | 310 ft | 134 kts | 104° |
| 2026-04-28 14:56 | 36.97492 | -72.90138 | 124 ft | 134 kts | 104° |
| 2026-04-28 14:56 | 36.97340 | -72.89463 | 73 ft | 35 kts | 104° |
| 2026-04-28 14:56 | 36.97250 | -72.89139 | 73 ft | 37 kts | 173° |
| 2026-04-28 14:57 | 36.97170 | -72.88898 | 73 ft | 20 kts | 275° |
| 2026-04-28 14:57 | 36.97124 | -72.88775 | 73 ft | 32 kts | 302° |
| 2026-04-28 14:57 | 36.97022 | -72.88355 | 73 ft | 35 kts | 105° |
| 2026-04-28 14:57 | 36.96685 | -72.86934 | 647 ft | 254 kts | 106° |
| 2026-04-28 14:58 | 36.96995 | -72.84988 | 1450 ft | 260 kts | 23° |
| 2026-04-28 14:58 | 36.98380 | -72.85839 | 2244 ft | 247 kts | 287° |
| 2026-04-28 14:58 | 36.98940 | -72.87970 | 2236 ft | 253 kts | 291° |
| 2026-04-28 14:58 | 36.99153 | -72.90110 | 1769 ft | 253 kts | 257° |
| 2026-04-28 14:59 | 36.98443 | -72.92024 | 1039 ft | 233 kts | 224° |
| 2026-04-28 14:59 | 36.97421 | -72.92134 | 1406 ft | 142 kts | 130° |
| 2026-04-28 14:59 | 36.97131 | -72.90996 | 1047 ft | 135 kts | 101° |
| 2026-04-28 14:59 | 36.96933 | -72.89832 | 847 ft | 136 kts | 103° |
| 2026-04-28 15:00 | 36.96740 | -72.88680 | 680 ft | 136 kts | 103° |
| 2026-04-28 15:00 | 36.96523 | -72.87540 | 526 ft | 136 kts | 105° |
| 2026-04-28 15:00 | 36.96278 | -72.86412 | 355 ft | 136 kts | 104° |
| 2026-04-28 15:00 | 36.96044 | -72.85282 | 188 ft | 135 kts | 104° |
| 2026-04-28 15:01 | 36.95843 | -72.84324 | 73 ft | 35 kts | 106° |
| 2026-04-28 15:01 | 36.95759 | -72.84038 | 73 ft | 35 kts | 106° |
| 2026-04-28 15:01 | 36.95676 | -72.83752 | 73 ft | 35 kts | 106° |
| 2026-04-28 15:01 | 36.95593 | -72.83466 | 73 ft | 35 kts | 106° |
| 2026-04-28 15:02 | 36.95502 | -72.83148 | 73 ft | 39 kts | 160° |
| 2026-04-28 15:02 | 36.95423 | -72.82909 | 73 ft | 23 kts | 275° |
| 2026-04-28 15:02 | 36.95360 | -72.82664 | 73 ft | 42 kts | 73° |
| 2026-04-28 15:02 | 36.95269 | -72.82331 | 73 ft | 109 kts | 105° |
| 2026-04-28 15:03 | 36.94909 | -72.80334 | 1275 ft | 255 kts | 76° |
| 2026-04-28 15:03 | 36.96160 | -72.79966 | 1964 ft | 229 kts | 316° |
| 2026-04-28 15:03 | 36.96962 | -72.81897 | 1793 ft | 277 kts | 293° |
| 2026-04-28 15:03 | 36.97487 | -72.84052 | 1256 ft | 236 kts | 263° |
| 2026-04-28 15:04 | 36.96662 | -72.85458 | 1016 ft | 162 kts | 185° |
| 2026-04-28 15:04 | 36.95861 | -72.84881 | 858 ft | 135 kts | 128° |
| 2026-04-28 15:04 | 36.95404 | -72.83844 | 661 ft | 135 kts | 110° |
| 2026-04-28 15:04 | 36.95119 | -72.82739 | 571 ft | 133 kts | 107° |
| 2026-04-28 15:05 | 36.94858 | -72.81623 | 429 ft | 134 kts | 105° |
| 2026-04-28 15:05 | 36.94608 | -72.80504 | 266 ft | 135 kts | 104° |
| 2026-04-28 15:05 | 36.94378 | -72.79378 | 94 ft | 135 kts | 103° |
| 2026-04-28 15:05 | 36.94255 | -72.78861 | 73 ft | 37 kts | 105° |
| 2026-04-28 15:06 | 36.94155 | -72.78558 | 73 ft | 29 kts | 292° |
| 2026-04-28 15:06 | 36.94099 | -72.78376 | 73 ft | 22 kts | 274° |
| 2026-04-28 15:06 | 36.94030 | -72.78094 | 73 ft | 40 kts | 98° |
| 2026-04-28 15:06 | 36.93941 | -72.77781 | 73 ft | 37 kts | 106° |
| 2026-04-28 15:07 | 36.93675 | -72.76615 | 586 ft | 250 kts | 105° |
| 2026-04-28 15:07 | 36.94159 | -72.74865 | 1581 ft | 245 kts | 0° |
| 2026-04-28 15:07 | 36.95240 | -72.76153 | 1940 ft | 224 kts | 298° |
| 2026-04-28 15:07 | 36.95678 | -72.77244 | 1826 ft | 190 kts | 295° |
| 2026-04-28 15:08 | 36.96031 | -72.78339 | 1897 ft | 123 kts | 284° |
| 2026-04-28 15:08 | 36.95869 | -72.79289 | 1168 ft | 126 kts | 214° |
| 2026-04-28 15:09 | 36.94993 | -72.79502 | 781 ft | 131 kts | 173° |
| 2026-04-28 15:09 | 36.94170 | -72.79070 | 939 ft | 133 kts | 132° |
| 2026-04-28 15:09 | 36.93750 | -72.78027 | 695 ft | 134 kts | 106° |
| 2026-04-28 15:09 | 36.93571 | -72.77279 | 554 ft | 137 kts | 106° |
| 2026-04-28 15:10 | 36.93239 | -72.75778 | 263 ft | 134 kts | 105° |
| 2026-04-28 15:10 | 36.93003 | -72.74666 | 107 ft | 134 kts | 103° |
| 2026-04-28 15:10 | 36.92872 | -72.74154 | 73 ft | 36 kts | 183° |
| 2026-04-28 15:10 | 36.92775 | -72.73868 | 73 ft | 35 kts | 147° |
| 2026-04-28 15:11 | 36.92692 | -72.73582 | 73 ft | 35 kts | 147° |
| 2026-04-28 15:11 | 36.92608 | -72.73297 | 73 ft | 35 kts | 147° |
| 2026-04-28 15:11 | 36.92525 | -72.73010 | 73 ft | 35 kts | 147° |
| 2026-04-28 15:11 | 36.92442 | -72.72725 | 73 ft | 35 kts | 147° |
| 2026-04-28 15:12 | 36.92386 | -72.72535 | 73 ft | 35 kts | 147° |
| 2026-04-28 15:12 | 36.92303 | -72.72250 | 73 ft | 35 kts | 147° |
| 2026-04-28 15:12 | 36.92220 | -72.71964 | 73 ft | 35 kts | 147° |
| 2026-04-28 15:12 | 36.92137 | -72.71678 | 73 ft | 35 kts | 147° |
| 2026-04-28 15:13 | 36.92053 | -72.71392 | 73 ft | 35 kts | 147° |
| 2026-04-28 15:13 | 36.91943 | -72.71014 | 73 ft | 35 kts | 147° |
| 2026-04-28 15:13 | 36.91887 | -72.70820 | 73 ft | 35 kts | 147° |
| 2026-04-28 15:13 | 36.91803 | -72.70535 | 73 ft | 35 kts | 147° |
| 2026-04-28 15:14 | 36.91720 | -72.70249 | 73 ft | 35 kts | 147° |
| 2026-04-28 15:14 | 36.91637 | -72.69963 | 73 ft | 35 kts | 147° |
| 2026-04-28 15:14 | 36.91553 | -72.69678 | 73 ft | 35 kts | 147° |
| 2026-04-28 15:14 | 36.91470 | -72.69392 | 73 ft | 35 kts | 147° |
| 2026-04-28 15:15 | 36.91386 | -72.69076 | 73 ft | 42 kts | 78° |
| 2026-04-28 15:15 | 36.91300 | -72.68767 | 73 ft | 35 kts | 106° |
| 2026-04-28 15:15 | 36.91019 | -72.67688 | 578 ft | 241 kts | 106° |
| 2026-04-28 15:15 | 36.90341 | -72.65696 | 2249 ft | 259 kts | 127° |
| 2026-04-28 15:16 | 36.88797 | -72.64126 | 4177 ft | 315 kts | 153° |
| 2026-04-28 15:16 | 36.86688 | -72.63435 | 6289 ft | 322 kts | 178° |
| 2026-04-28 15:16 | 36.84481 | -72.63878 | 8463 ft | 334 kts | 201° |
| 2026-04-28 15:16 | 36.82498 | -72.65435 | 10748 ft | 345 kts | 224° |
| 2026-04-28 15:17 | 36.81099 | -72.67908 | 13118 ft | 357 kts | 246° |
| 2026-04-28 15:17 | 36.80526 | -72.70952 | 15570 ft | 366 kts | 268° |
| 2026-04-28 15:17 | 36.80596 | -72.74160 | 17818 ft | 391 kts | 272° |
| 2026-04-28 15:17 | 36.80724 | -72.77662 | 17201 ft | 395 kts | 272° |
| 2026-04-28 15:18 | 36.80853 | -72.81050 | 17068 ft | 391 kts | 272° |
| 2026-04-28 15:18 | 36.80982 | -72.84449 | 17166 ft | 392 kts | 272° |
| 2026-04-28 15:18 | 36.81111 | -72.87858 | 17163 ft | 393 kts | 272° |
| 2026-04-28 15:18 | 36.81238 | -72.91258 | 17138 ft | 392 kts | 272° |
| 2026-04-28 15:19 | 36.81365 | -72.94659 | 17153 ft | 392 kts | 272° |
| 2026-04-28 15:19 | 36.81491 | -72.98063 | 17152 ft | 393 kts | 272° |
| 2026-04-28 15:19 | 36.81617 | -73.01463 | 17148 ft | 392 kts | 272° |
| 2026-04-28 15:19 | 36.81741 | -73.04869 | 17150 ft | 392 kts | 272° |
| 2026-04-28 15:20 | 36.81865 | -73.08270 | 17150 ft | 392 kts | 272° |
| 2026-04-28 15:20 | 36.81987 | -73.11670 | 17150 ft | 392 kts | 272° |
| 2026-04-28 15:20 | 36.82109 | -73.15074 | 17150 ft | 392 kts | 272° |
| 2026-04-28 15:20 | 36.82230 | -73.18474 | 17150 ft | 392 kts | 272° |
| 2026-04-28 15:21 | 36.82350 | -73.21874 | 17150 ft | 392 kts | 272° |
| 2026-04-28 15:21 | 36.82469 | -73.25280 | 17150 ft | 392 kts | 272° |
| 2026-04-28 15:21 | 36.82588 | -73.28682 | 17150 ft | 392 kts | 272° |
| 2026-04-28 15:21 | 36.82705 | -73.32085 | 17150 ft | 392 kts | 272° |
| 2026-04-28 15:22 | 36.82822 | -73.35489 | 17150 ft | 392 kts | 272° |
| 2026-04-28 15:22 | 36.82938 | -73.38886 | 17150 ft | 392 kts | 272° |
| 2026-04-28 15:22 | 36.83053 | -73.42293 | 17150 ft | 392 kts | 272° |
| 2026-04-28 15:22 | 36.83167 | -73.45693 | 17150 ft | 392 kts | 272° |
| 2026-04-28 15:23 | 36.83281 | -73.49100 | 17150 ft | 392 kts | 272° |
| 2026-04-28 15:23 | 36.83393 | -73.52500 | 17150 ft | 392 kts | 272° |
| 2026-04-28 15:23 | 36.83505 | -73.55905 | 17150 ft | 392 kts | 272° |
| 2026-04-28 15:23 | 36.83616 | -73.59308 | 17150 ft | 392 kts | 272° |
| 2026-04-28 15:24 | 36.83726 | -73.62715 | 17150 ft | 392 kts | 272° |
| 2026-04-28 15:24 | 36.83836 | -73.66116 | 17150 ft | 392 kts | 272° |
| 2026-04-28 15:24 | 36.83944 | -73.69523 | 17150 ft | 392 kts | 272° |
| 2026-04-28 15:24 | 36.84052 | -73.72927 | 17150 ft | 392 kts | 272° |
| 2026-04-28 15:25 | 36.84158 | -73.76326 | 17150 ft | 392 kts | 272° |
| 2026-04-28 15:25 | 36.84264 | -73.79730 | 17150 ft | 392 kts | 272° |
| 2026-04-28 15:25 | 36.84370 | -73.83133 | 17150 ft | 392 kts | 272° |
| 2026-04-28 15:25 | 36.84473 | -73.86497 | 17150 ft | 392 kts | 272° |
| 2026-04-28 15:26 | 36.84578 | -73.89947 | 17150 ft | 392 kts | 272° |
| 2026-04-28 15:26 | 36.84679 | -73.93306 | 17150 ft | 392 kts | 272° |
| 2026-04-28 15:26 | 36.84781 | -73.96709 | 17150 ft | 392 kts | 272° |
| 2026-04-28 15:26 | 36.84882 | -74.00113 | 17150 ft | 392 kts | 272° |
| 2026-04-28 15:27 | 36.84983 | -74.03518 | 17150 ft | 392 kts | 272° |
| 2026-04-28 15:27 | 36.85082 | -74.06923 | 17150 ft | 392 kts | 272° |
| 2026-04-28 15:27 | 36.85181 | -74.10325 | 17150 ft | 392 kts | 272° |
| 2026-04-28 15:27 | 36.85279 | -74.13730 | 17150 ft | 392 kts | 272° |
| 2026-04-28 15:28 | 36.85376 | -74.17136 | 17150 ft | 392 kts | 272° |
| 2026-04-28 15:28 | 36.85473 | -74.20540 | 17150 ft | 392 kts | 272° |
| 2026-04-28 15:28 | 36.85569 | -74.23950 | 17150 ft | 392 kts | 272° |
| 2026-04-28 15:28 | 36.85663 | -74.27353 | 17150 ft | 392 kts | 272° |
| 2026-04-28 15:29 | 36.85757 | -74.30755 | 17150 ft | 392 kts | 272° |
| 2026-04-28 15:29 | 36.85851 | -74.34160 | 17150 ft | 392 kts | 272° |
| 2026-04-28 15:29 | 36.85943 | -74.37565 | 17150 ft | 392 kts | 272° |
| 2026-04-28 15:29 | 36.86035 | -74.40973 | 17150 ft | 392 kts | 272° |
| 2026-04-28 15:30 | 36.86127 | -74.44380 | 17150 ft | 392 kts | 272° |
| 2026-04-28 15:30 | 36.86217 | -74.47784 | 17150 ft | 392 kts | 272° |
| 2026-04-28 15:30 | 36.86307 | -74.51192 | 17150 ft | 392 kts | 272° |
| 2026-04-28 15:30 | 36.86395 | -74.54595 | 17150 ft | 392 kts | 272° |
| 2026-04-28 15:31 | 36.86484 | -74.57998 | 17150 ft | 392 kts | 272° |
| 2026-04-28 15:31 | 36.86571 | -74.61407 | 17150 ft | 392 kts | 272° |
| 2026-04-28 15:31 | 36.86658 | -74.64812 | 17150 ft | 392 kts | 272° |
| 2026-04-28 15:31 | 36.86743 | -74.68171 | 17150 ft | 392 kts | 272° |
| 2026-04-28 15:32 | 36.86828 | -74.71583 | 17150 ft | 392 kts | 272° |
| 2026-04-28 15:32 | 36.86913 | -74.74987 | 17150 ft | 392 kts | 272° |
| 2026-04-28 15:32 | 36.86997 | -74.78390 | 17150 ft | 392 kts | 271° |
| 2026-04-28 15:32 | 36.87080 | -74.81798 | 17150 ft | 392 kts | 271° |
| 2026-04-28 15:33 | 36.87163 | -74.85205 | 17150 ft | 392 kts | 271° |
| 2026-04-28 15:33 | 36.87245 | -74.88614 | 17150 ft | 392 kts | 271° |
| 2026-04-28 15:33 | 36.87326 | -74.92018 | 17150 ft | 392 kts | 271° |
| 2026-04-28 15:33 | 36.87406 | -74.95426 | 17150 ft | 392 kts | 271° |
| 2026-04-28 15:34 | 36.87486 | -74.98829 | 17150 ft | 392 kts | 271° |
| 2026-04-28 15:34 | 36.87566 | -75.02242 | 17150 ft | 392 kts | 271° |
| 2026-04-28 15:34 | 36.87645 | -75.05649 | 17150 ft | 392 kts | 271° |
| 2026-04-28 15:34 | 36.87723 | -75.09055 | 17150 ft | 392 kts | 271° |
| 2026-04-28 15:35 | 36.87800 | -75.12458 | 17150 ft | 392 kts | 271° |
| 2026-04-28 15:35 | 36.87954 | -75.19276 | 17150 ft | 392 kts | 271° |
| 2026-04-28 15:35 | 36.88030 | -75.22681 | 17150 ft | 392 kts | 271° |
| 2026-04-28 15:36 | 36.88105 | -75.26086 | 17150 ft | 392 kts | 271° |
| 2026-04-28 15:36 | 36.88180 | -75.29494 | 17150 ft | 392 kts | 271° |
| 2026-04-28 15:36 | 36.88255 | -75.32904 | 17150 ft | 392 kts | 271° |
| 2026-04-28 15:36 | 36.88329 | -75.36310 | 17150 ft | 392 kts | 271° |
| 2026-04-28 15:37 | 36.88402 | -75.39718 | 17150 ft | 392 kts | 271° |
| 2026-04-28 15:37 | 36.88476 | -75.43126 | 17150 ft | 392 kts | 271° |
| 2026-04-28 15:37 | 36.88548 | -75.46528 | 17150 ft | 392 kts | 271° |
| 2026-04-28 15:37 | 36.88597 | -75.48785 | 17150 ft | 392 kts | 271° |
| 2026-04-28 15:38 | 36.88694 | -75.53349 | 17150 ft | 392 kts | 271° |
| 2026-04-28 15:38 | 36.88764 | -75.56776 | 17030 ft | 400 kts | 271° |
| 2026-04-28 15:38 | 36.88851 | -75.60207 | 16683 ft | 390 kts | 273° |
| 2026-04-28 15:38 | 36.89046 | -75.63468 | 16133 ft | 368 kts | 274° |
| 2026-04-28 15:39 | 36.89227 | -75.66544 | 15490 ft | 344 kts | 274° |
| 2026-04-28 15:39 | 36.89392 | -75.69428 | 14854 ft | 323 kts | 274° |
| 2026-04-28 15:39 | 36.89549 | -75.72173 | 14058 ft | 311 kts | 274° |
| 2026-04-28 15:39 | 36.89691 | -75.74863 | 13285 ft | 322 kts | 274° |
| 2026-04-28 15:40 | 36.89846 | -75.77806 | 12424 ft | 355 kts | 274° |
| 2026-04-28 15:40 | 36.90015 | -75.81005 | 11482 ft | 383 kts | 274° |
| 2026-04-28 15:40 | 36.90193 | -75.84364 | 10100 ft | 369 kts | 274° |
| 2026-04-28 15:40 | 36.90319 | -75.87167 | 8457 ft | 287 kts | 273° |
| 2026-04-28 15:41 | 36.90412 | -75.89441 | 7108 ft | 242 kts | 271° |
| 2026-04-28 15:41 | 36.90375 | -75.91125 | 6261 ft | 236 kts | 267° |
| 2026-04-28 15:41 | 36.90057 | -75.92998 | 4898 ft | 243 kts | 249° |
| 2026-04-28 15:41 | 36.89240 | -75.94899 | 3662 ft | 256 kts | 235° |
| 2026-04-28 15:42 | 36.88035 | -75.96557 | 2675 ft | 258 kts | 223° |
| 2026-04-28 15:42 | 36.86772 | -75.97993 | 1895 ft | 239 kts | 222° |
| 2026-04-28 15:42 | 36.85597 | -75.99341 | 1156 ft | 215 kts | 222° |
| 2026-04-28 15:42 | 36.84627 | -76.00425 | 706 ft | 160 kts | 221° |
| 2026-04-28 15:43 | 36.83893 | -76.01226 | 343 ft | 126 kts | 222° |
| 2026-04-28 15:43 | 36.83223 | -76.01976 | 119 ft | 131 kts | 222° |
| 2026-04-28 15:43 | 36.82664 | -76.02609 | 30 ft | 56 kts | 225° |
| 2026-04-28 15:43 | 36.82529 | -76.02763 | 30 ft | 20 kts | 200° |
| 2026-04-28 15:44 | 36.82389 | -76.02758 | 30 ft | 15 kts | 206° |
| 2026-04-28 15:44 | 36.82279 | -76.02868 | 30 ft | 21 kts | 223° |
| 2026-04-28 15:44 | 36.82122 | -76.03043 | 30 ft | 31 kts | 221° |
| 2026-04-28 15:44 | 36.81975 | -76.03209 | 30 ft | 23 kts | 217° |
| 2026-04-28 15:45 | 36.81863 | -76.03159 | 30 ft | 16 kts | 135° |
| 2026-04-28 15:45 | 36.81762 | -76.03032 | 30 ft | 18 kts | 137° |
| 2026-04-28 15:45 | 36.81744 | -76.03009 | 30 ft | 0 kts | 129° |